• Join FlightAware (Why Join?)
  • Login
  • US Flag 
 
03:39AM EST


 

Airport Tracker/Info


-or-


 

Live Flight TrackerFlight Track Log ✈ N789EX ✈ 25-Nov-2013 ✈ KBFI - KBFI

Flight Track Log - Related Links

Times and Time Zones

All times are in EST time to prevent confusion due to time zone crossing. See the N789EX flight status page for this flight to view local times or setup timezone preferences in your user account.

Time Position Orientation Groundspeed Altitude Reporting Facility
EST Latitude Longitude Course Direction KTS MPH feet Rate Location/Type
03:36PM 47.5117 -122.2878 145° Southeast 168 193 1,500  Level Seattle Center
03:37PM 47.4694 -122.2433 145° Southeast 219 252 4,300 3,900 Climbing Seattle Center
03:38PM 47.5044 -122.1625 57° Northeast 288 331 9,000 3,780 Climbing Seattle Center
03:39PM 47.5528 -122.2525 309° West 300 345 12,100 3,360 Climbing Seattle Center
03:40PM 47.5981 -122.3744 299° West 338 389 15,900 3,360 Climbing Seattle Center
03:41PM 47.6414 -122.5097 295° West 349 402 19,000 1,980 Climbing Seattle Center
03:42PM 47.6881 -122.6531 296° West 375 432 20,000 480 Climbing Seattle Center
03:43PM 47.7397 -122.8139 296° West 435 501 20,000  Level Seattle Center
03:44PM 47.7922 -122.9772 296° West 438 504 20,000  Level Seattle Center
03:45PM 47.8464 -123.1508 295° West 459 528 20,000 60 Level Seattle Center
03:46PM 47.9042 -123.3208 297° West 461 531 20,200 60 Climbing Seattle Center
03:47PM 47.9658 -123.4892 299° West 464 534 20,200 -120 Level Seattle Center
03:48PM 48.0286 -123.6608 299° West 462 532 20,000  Descending Seattle Center
03:49PM 48.0917 -123.8269 300° West 463 533 20,200 60 Climbing Seattle Center
03:50PM 48.1311 -124.0103 288° West 461 531 20,200 60 Level Seattle Center
03:51PM 48.1683 -124.1953 287° West 463 533 20,400 -60 Climbing Seattle Center
03:52PM 48.2178 -124.3708 293° West 460 529 20,100 -240 Descending Seattle Center
03:53PM 48.2786 -124.5417 298° West 462 532 20,000 -60 Descending Seattle Center
03:54PM 48.2781 -124.7308 270° West 459 528 20,000 2,160 Level Seattle Center
03:55PM 48.2314 -124.8981 247° West 442 509 24,500 3,600 Climbing Seattle Center
03:56PM 48.1889 -125.0547 248° West 418 481 27,400 2,580 Climbing Seattle Center
03:57PM 48.0556 -125.0889 190° South 450 518 29,900 1,200 Climbing Seattle Center
03:58PM 47.9344 -125.0342 163° South 457 526 29,900 -60 Level Seattle Center
03:59PM 47.8119 -124.9817 164° South 460 529 29,800  Descending Seattle Center
04:00PM 47.6883 -124.9319 165° South 462 532 30,000 60 Climbing Seattle Center
04:01PM 47.5639 -124.8897 167° South 461 531 30,000 60 Level Seattle Center
04:02PM 47.4383 -124.8525 169° South 461 531 30,200  Climbing Seattle Center
04:03PM 47.3128 -124.8172 169° South 462 532 30,100 -180 Descending Seattle Center
04:04PM 47.2058 -124.7028 144° Southeast 475 547 29,900 -60 Descending Seattle Center
04:06PM 47.1000 -124.5878 143° Southeast 475 547 30,000 60 Climbing Seattle Center
04:07PM 46.9719 -124.4489 143° Southeast 478 550 30,100 -60 Climbing Seattle Center
04:08PM 46.8658 -124.3339 143° Southeast 478 550 29,900 -120 Descending Seattle Center
04:09PM 46.7600 -124.2197 144° Southeast 475 547 29,900  Level Seattle Center
04:10PM 46.6400 -124.1433 156° South 486 559 29,900  Level Seattle Center
04:11PM 46.5006 -124.1314 177° South 501 577 29,900  Level Seattle Center
04:12PM 46.3561 -124.1219 177° South 509 586 30,000  Climbing Seattle Center
04:13PM 46.2144 -124.1142 178° South 511 588 30,000  Level Seattle Center
04:14PM 46.0725 -124.1094 179° South 516 594 30,000  Level Seattle Center
04:15PM 45.9303 -124.1014 178° South 515 593 30,000  Level Seattle Center
04:16PM 45.7894 -124.0886 176° South 510 587 30,000  Level Seattle Center
04:17PM 45.6467 -124.0806 178° South 514 592 30,000  Level Seattle Center
04:18PM 45.5050 -124.0714 177° South 514 592 30,000  Level Seattle Center
04:19PM 45.3347 -124.0611 178° South 513 590 30,000  Level Seattle Center
04:20PM 45.1933 -124.0736 184° South 522 601 30,000  Level Seattle Center
04:21PM 45.0531 -124.0892 184° South 514 592 30,000  Level Seattle Center
04:22PM 44.9125 -124.1044 184° South 514 592 30,000  Level Seattle Center
04:23PM 44.7717 -124.1200 184° South 514 592 30,000  Level Seattle Center
04:24PM 44.6303 -124.1339 184° South 515 593 30,000  Level Seattle Center
04:25PM 44.4886 -124.1453 183° South 513 590 30,000  Level Seattle Center
04:26PM 44.3467 -124.1575 184° South 513 590 30,000  Level Seattle Center
04:27PM 44.1764 -124.1711 183° South 513 590 30,000  Level Seattle Center
04:28PM 44.0336 -124.1811 183° South 516 594 30,000  Level Seattle Center
04:29PM 43.8917 -124.1919 183° South 514 592 30,000 660 Level Seattle Center
04:30PM 43.7500 -124.2017 183° South 512 589 31,400 2,700 Climbing Seattle Center
04:31PM 43.6203 -124.2072 182° South 474 545 35,600 3,000 Climbing Seattle Center
04:32PM 43.4947 -124.2122 182° South 454 522 37,600 1,080 Climbing Seattle Center
04:33PM 43.3683 -124.2156 181° South 454 522 37,900 180 Climbing Seattle Center
04:34PM 43.2322 -124.2186 181° South 484 557 38,000  Climbing Seattle Center
04:35PM 43.0972 -124.2214 181° South 488 562 38,000  Level Seattle Center
04:36PM 42.9464 -124.2253 181° South 481 554 38,000  Level Seattle Center
04:37PM 42.8114 -124.2244 180° South 484 557 38,000  Level Seattle Center
04:38PM 42.6778 -124.2278 181° South 482 555 38,000  Level Seattle Center
04:39PM 42.5428 -124.2314 181° South 483 556 38,000  Level Seattle Center
04:40PM 42.4072 -124.2342 181° South 487 560 38,000 -60 Level Seattle Center
04:41PM 42.2850 -124.2736 193° South 474 545 37,900 -60 Descending Seattle Center
04:42PM 42.3253 -124.4178 291° West 480 552 37,900  Level Seattle Center
04:43PM 42.4667 -124.4028 North 511 588 37,900  Level Seattle Center
04:44PM 42.6392 -124.3581 11° North 524 603 37,900  Level Seattle Center
04:45PM 42.7803 -124.3217 11° North 520 598 37,900  Level Seattle Center
04:46PM 42.9225 -124.2856 11° North 519 597 38,000  Climbing Seattle Center
04:47PM 43.0500 -124.2481 12° North 537 618 38,000 -60 Level Seattle Center
04:48PM 43.1917 -124.2442 North 521 600 37,900 -60 Descending Seattle Center
04:49PM 43.3653 -124.2425 360° North 525 604 37,900  Level Seattle Center
04:50PM 43.5092 -124.2408 360° North 523 602 38,000  Climbing Seattle Center
04:51PM 43.6525 -124.2367 North 519 597 37,900 -60 Descending Seattle Center
04:52PM 43.7969 -124.2339 North 521 600 37,900  Level Seattle Center
04:53PM 43.9397 -124.2286 North 527 606 38,000  Climbing Seattle Center
04:54PM 44.0844 -124.2228 North 524 603 38,000  Level Seattle Center
04:55PM 44.2281 -124.2147 North 523 602 38,000  Level Seattle Center
04:56PM 44.3739 -124.2086 North 528 608 38,000 360 Level Seattle Center
04:57PM 44.5128 -124.2031 North 506 582 38,800 900 Climbing Seattle Center
04:58PM 44.6511 -124.2019 360° North 497 572 39,900 540 Climbing Seattle Center
04:59PM 44.7883 -124.2003 360° North 492 566 40,000 120 Climbing Seattle Center
05:00PM 44.9261 -124.2000 360° North 491 565 40,200 60 Climbing Seattle Center
05:01PM 45.0647 -124.2006 360° North 493 567 40,200 -240 Level Seattle Center
05:02PM 45.2017 -124.2067 358° North 490 564 39,800 -300 Descending Seattle Center
05:04PM 45.3378 -124.2158 357° North 489 563 39,700  Descending Seattle Center
05:05PM 45.5014 -124.2075 North 489 563 39,900 240 Climbing Seattle Center
05:06PM 45.6397 -124.2081 360° North 494 568 40,200 -60 Climbing Seattle Center
05:07PM 45.7761 -124.2156 358° North 490 564 39,800 -240 Descending Seattle Center
05:08PM 45.9119 -124.2308 356° North 490 564 39,800  Level Seattle Center
05:09PM 46.0483 -124.2358 359° North 490 564 39,900 60 Climbing Seattle Center
05:10PM 46.1853 -124.2136 North 496 571 40,000  Climbing Seattle Center
05:11PM 46.3225 -124.1931 North 497 572 40,000  Level Seattle Center
05:12PM 46.4578 -124.1728 North 498 573 40,000 -60 Level Seattle Center
05:13PM 46.5950 -124.1608 North 495 570 39,900 -1,140 Descending Seattle Center
05:14PM 46.7308 -124.1583 North 489 563 37,800 -2,760 Descending Seattle Center
05:15PM 46.8669 -124.1531 North 490 564 34,400 -4,500 Descending Seattle Center
05:16PM 47.0264 -124.1114 10° North 502 578 28,700 -4,620 Descending Seattle Center
05:17PM 47.1328 -123.9850 39° Northeast 496 571 25,100 -3,060 Descending Seattle Center
05:18PM 47.2281 -123.8661 40° Northeast 489 563 22,500 -2,040 Descending Seattle Center
05:19PM 47.3250 -123.7444 40° Northeast 464 534 21,000 -780 Descending Seattle Center
05:20PM 47.4206 -123.6231 41° Northeast 455 524 21,000  Level Seattle Center
05:21PM 47.5181 -123.5014 40° Northeast 458 527 21,000 -1,260 Level Seattle Center
05:22PM 47.6139 -123.3806 40° Northeast 453 521 18,500 -2,820 Descending Seattle Center
05:23PM 47.7236 -123.2386 41° Northeast 437 503 15,300 -3,480 Descending Seattle Center
05:24PM 47.7692 -123.1356 57° Northeast 398 458 12,200 -4,140 Descending Seattle Center
05:24PM 47.7728 -123.0975 82° East 400 460 11,100 -2,280 Descending Seattle Center
05:25PM 47.7764 -122.9839 87° East 318 366 9,900 -1,140 Descending Seattle Center
05:25PM 47.7775 -122.9583 86° East 330 380 10,000 -540 Climbing Seattle Center
05:26PM 47.7808 -122.8664 87° East 271 312 9,400 -840 Descending Seattle Center
05:26PM 47.7817 -122.8442 87° East 279 321 9,200 -1,500 Descending Seattle Center
05:27PM 47.7681 -122.7344 100° East 262 302 7,600 -1,320 Descending Seattle Center
05:28PM 47.7469 -122.6581 112° Southeast 257 296 6,900 -1,020 Descending Seattle Center
05:28PM 47.7397 -122.6372 117° Southeast 252 290 6,600 -1,620 Descending Seattle Center
05:29PM 47.7200 -122.5675 113° Southeast 215 247 5,300 -1,800 Descending Seattle Center
05:29PM 47.7161 -122.5553 115° Southeast 216 249 4,800 -2,580 Descending Seattle Center
05:30PM 47.6992 -122.4933 112° Southeast 198 228 2,700 -2,280 Descending Seattle Center
05:30PM 47.6958 -122.4831 116° Southeast 190 219 2,500 -540 Descending Seattle Center
05:31PM 47.6786 -122.4292 115° Southeast 163 188 2,200 -300 Descending Seattle Center
05:31PM 47.6694 -122.4222 153° Southeast 171 197 2,200  Level Seattle Center
05:32PM 47.6394 -122.3978 151° Southeast 164 189 2,200 -120 Level Seattle Center
05:32PM 47.6303 -122.3886 146° Southeast 163 188 2,100 -720 Descending Seattle Center
05:33PM 47.6053 -122.3675 150° Southeast 139 160 1,500 -840 Descending Seattle Center
05:33PM 47.5972 -122.3608 151° Southeast 140 161 1,300 -600 Descending Seattle Center
05:34PM 47.5744 -122.3419 151° Southeast 126 145 900 -720 Descending Seattle Center
05:34PM 47.5667 -122.3344 147° Southeast 130 150 600 16,080 Descending Seattle Center
05:35PM 47.5319 -122.3044 150° Southeast 132 152 21,000 20,040 Climbing Seattle Center
05:37PM 47.5300 -122.3020 123° Southeast  Level Estimated